Time;durP1;ratioP1;P1;durP2;ratioP2;P2;SDS_P1;SDS_P2;PMS_P1;PMS_P2;Temp;Humidity;BMP_temperature;BMP_pressure;BME280_temperature;BME280_humidity;BME280_pressure;Samples;Min_cycle;Max_cycle;Signal;HPM_P1;HPM_P2
2022/03/23 00:01:47;;;;;;;;;;;20.90;36.90;;;;;;5055984;28;20483;-39
2022/03/23 00:04:14;;;;;;;;;;;20.90;36.90;;;;;;5061825;28;19925;-39
2022/03/23 00:06:42;;;;;;;;;;;20.90;36.90;;;;;;5075912;28;20316;-44
2022/03/23 00:09:09;;;;;;;;;;;20.90;36.90;;;;;;5075592;28;20438;-40
2022/03/23 00:11:36;;;;;;;;;;;20.90;36.90;;;;;;5075594;28;20023;-40
2022/03/23 00:14:05;;;;;;;;;;;20.90;36.90;;;;;;5075722;28;19983;-40
2022/03/23 00:16:36;;;;;;;;;;;20.90;37.00;;;;;;5075746;28;19956;-41
2022/03/23 00:19:07;;;;;;;;;;;20.90;37.00;;;;;;5073854;28;19955;-39
2022/03/23 00:21:34;;;;;;;;;;;20.90;37.00;;;;;;5075219;28;19970;-39
2022/03/23 00:24:01;;;;;;;;;;;20.90;37.00;;;;;;5075607;28;20011;-42
2022/03/23 00:26:28;;;;;;;;;;;20.90;37.00;;;;;;5075224;28;19924;-39
2022/03/23 00:28:55;;;;;;;;;;;20.90;37.00;;;;;;5075190;28;19925;-39
2022/03/23 00:31:22;;;;;;;;;;;20.90;37.00;;;;;;5075125;28;19971;-40
2022/03/23 00:33:54;;;;;;;;;;;20.90;37.00;;;;;;5074001;28;19928;-39
2022/03/23 00:36:21;;;;;;;;;;;20.90;37.00;;;;;;5075083;28;20390;-40
2022/03/23 00:38:48;;;;;;;;;;;20.90;37.00;;;;;;5075049;28;19963;-41
2022/03/23 00:41:18;;;;;;;;;;;20.90;37.00;;;;;;5075269;28;20011;-40
2022/03/23 00:43:45;;;;;;;;;;;20.90;37.00;;;;;;5075184;28;19955;-40
2022/03/23 00:46:12;;;;;;;;;;;20.90;37.00;;;;;;5075187;28;20355;-40
2022/03/23 00:48:39;;;;;;;;;;;20.90;37.00;;;;;;5075012;28;19959;-39
2022/03/23 00:51:06;;;;;;;;;;;20.90;37.00;;;;;;5072415;28;19924;-41
2022/03/23 00:53:34;;;;;;;;;;;20.90;37.00;;;;;;5074893;28;20364;-39
2022/03/23 00:56:01;;;;;;;;;;;20.90;37.00;;;;;;5074926;28;19970;-40
2022/03/23 00:58:28;;;;;;;;;;;20.90;37.10;;;;;;5075785;28;20011;-39
2022/03/23 01:00:55;;;;;;;;;;;20.80;37.00;;;;;;5074846;28;19930;-40
2022/03/23 01:03:23;;;;;;;;;;;20.80;37.30;;;;;;5075033;28;20294;-40
2022/03/23 01:05:51;;;;;;;;;;;20.80;37.00;;;;;;5073007;28;19959;-39
2022/03/23 01:08:18;;;;;;;;;;;20.80;37.00;;;;;;5074349;28;20022;-40
2022/03/23 01:10:45;;;;;;;;;;;20.80;37.00;;;;;;5057014;28;20003;-41
2022/03/23 01:13:12;;;;;;;;;;;20.80;37.00;;;;;;5056621;28;20007;-42
2022/03/23 01:15:39;;;;;;;;;;;20.80;37.00;;;;;;5074158;28;19979;-42
2022/03/23 01:18:06;;;;;;;;;;;20.80;37.00;;;;;;5074580;28;20299;-40
2022/03/23 01:20:34;;;;;;;;;;;20.80;37.60;;;;;;5072457;28;20380;-40
2022/03/23 01:23:01;;;;;;;;;;;20.80;37.00;;;;;;5073459;28;19925;-39
2022/03/23 01:25:28;;;;;;;;;;;20.80;37.00;;;;;;5073378;28;19924;-40
2022/03/23 01:27:56;;;;;;;;;;;20.80;37.00;;;;;;5073343;28;20015;-40
2022/03/23 01:30:23;;;;;;;;;;;20.80;37.10;;;;;;5073448;28;19984;-40
2022/03/23 01:32:50;;;;;;;;;;;20.80;37.10;;;;;;5074140;28;19978;-40
2022/03/23 01:35:17;;;;;;;;;;;20.80;37.10;;;;;;5071488;28;19924;-42
2022/03/23 01:37:44;;;;;;;;;;;20.80;37.10;;;;;;5074373;28;19929;-39
2022/03/23 01:40:12;;;;;;;;;;;20.80;37.10;;;;;;5073027;28;19974;-41
2022/03/23 01:42:39;;;;;;;;;;;20.80;37.10;;;;;;5073139;28;19929;-41
2022/03/23 01:45:07;;;;;;;;;;;20.80;37.10;;;;;;5073088;28;20412;-39
2022/03/23 01:47:34;;;;;;;;;;;20.80;37.10;;;;;;5073039;28;19964;-42
2022/03/23 01:50:03;;;;;;;;;;;20.80;37.10;;;;;;5071547;28;20387;-40
2022/03/23 01:52:32;;;;;;;;;;;20.80;37.20;;;;;;5073085;28;19924;-40
2022/03/23 01:55:04;;;;;;;;;;;20.80;37.20;;;;;;5073171;28;19935;-42
2022/03/23 01:57:31;;;;;;;;;;;20.80;37.20;;;;;;5055200;28;19924;-41
2022/03/23 01:59:58;;;;;;;;;;;20.80;37.20;;;;;;5073199;28;19924;-40
2022/03/23 02:02:25;;;;;;;;;;;20.70;37.10;;;;;;5072854;28;19971;-39
2022/03/23 02:04:52;;;;;;;;;;;20.80;37.20;;;;;;5070217;28;19924;-39
2022/03/23 02:07:19;;;;;;;;;;;20.70;37.10;;;;;;5052677;28;19967;-41
2022/03/23 02:09:46;;;;;;;;;;;20.80;37.20;;;;;;5052154;28;19932;-40
2022/03/23 02:12:13;;;;;;;;;;;20.70;37.10;;;;;;5053004;28;19979;-39
2022/03/23 02:14:40;;;;;;;;;;;20.70;37.10;;;;;;5052604;28;19986;-39
2022/03/23 02:17:08;;;;;;;;;;;20.70;37.10;;;;;;5052994;28;19924;-39
2022/03/23 02:19:35;;;;;;;;;;;20.70;37.10;;;;;;5052627;28;20434;-41
2022/03/23 02:22:02;;;;;;;;;;;20.70;37.10;;;;;;4983683;28;1955185;-40
2022/03/23 02:24:31;;;;;;;;;;;20.70;37.20;;;;;;5053753;28;20343;-40
2022/03/23 02:26:59;;;;;;;;;;;20.70;37.20;;;;;;5053961;28;19968;-39
2022/03/23 02:29:29;;;;;;;;;;;20.70;37.20;;;;;;5036927;28;19925;-40
2022/03/23 02:32:01;;;;;;;;;;;20.70;37.20;;;;;;5053352;28;19924;-40
2022/03/23 02:34:28;;;;;;;;;;;20.70;37.20;;;;;;5053628;28;20016;-39
2022/03/23 02:36:56;;;;;;;;;;;20.70;37.20;;;;;;5067458;28;20368;-40
2022/03/23 02:39:25;;;;;;;;;;;20.70;37.20;;;;;;5073201;28;20350;-42
2022/03/23 02:41:53;;;;;;;;;;;20.70;37.20;;;;;;5073291;28;20423;-40
2022/03/23 02:44:20;;;;;;;;;;;20.70;37.20;;;;;;5073469;28;20505;-43
2022/03/23 02:46:47;;;;;;;;;;;20.70;37.20;;;;;;5073527;28;20321;-41
2022/03/23 02:49:16;;;;;;;;;;;20.70;37.20;;;;;;5073554;28;20054;-41
2022/03/23 02:51:44;;;;;;;;;;;20.70;37.20;;;;;;5071898;28;20008;-40
2022/03/23 03:02:36;;;;;;;;;;;20.70;37.20;;;;;;5073410;28;19983;-42
2022/03/23 03:05:05;;;;;;;;;;;20.70;37.20;;;;;;5073062;28;19925;-41
2022/03/23 03:10:17;;;;;;;;;;;20.70;37.20;;;;;;5073389;28;19978;-41
2022/03/23 03:12:44;;;;;;;;;;;20.70;37.20;;;;;;5073334;28;20319;-40
2022/03/23 03:15:15;;;;;;;;;;;20.70;37.20;;;;;;5073226;28;19971;-44
2022/03/23 03:17:46;;;;;;;;;;;20.70;37.20;;;;;;5072956;28;19964;-39
2022/03/23 03:20:14;;;;;;;;;;;20.70;37.20;;;;;;5074790;28;20043;-40
2022/03/23 03:22:41;;;;;;;;;;;20.60;37.20;;;;;;5074774;28;20003;-40
2022/03/23 03:25:11;;;;;;;;;;;20.70;37.20;;;;;;5076482;28;19924;-42
2022/03/23 03:27:40;;;;;;;;;;;20.70;37.20;;;;;;5076726;28;19931;-39
2022/03/23 03:30:09;;;;;;;;;;;20.70;37.20;;;;;;5076691;28;19929;-42
2022/03/23 03:32:37;;;;;;;;;;;20.70;37.20;;;;;;5076325;28;20418;-39
2022/03/23 03:35:04;;;;;;;;;;;20.70;37.20;;;;;;5076173;28;19925;-40
2022/03/23 03:37:31;;;;;;;;;;;20.70;37.20;;;;;;5075074;28;19978;-47
2022/03/23 03:39:59;;;;;;;;;;;20.60;37.20;;;;;;5076368;28;19930;-40
2022/03/23 03:42:26;;;;;;;;;;;20.60;37.20;;;;;;5076100;28;20434;-40
2022/03/23 03:44:53;;;;;;;;;;;20.60;37.20;;;;;;5076082;28;19972;-39
2022/03/23 03:47:20;;;;;;;;;;;20.60;37.20;;;;;;5076357;28;19974;-40
2022/03/23 03:49:47;;;;;;;;;;;20.60;37.20;;;;;;5076302;28;19958;-40
2022/03/23 03:52:14;;;;;;;;;;;20.60;37.20;;;;;;5074146;28;20003;-40
2022/03/23 03:54:41;;;;;;;;;;;20.60;37.20;;;;;;5075821;28;19980;-39
2022/03/23 03:57:07;;;;;;;;;;;20.60;37.20;;;;;;5076086;28;20434;-40
2022/03/23 03:59:34;;;;;;;;;;;20.60;37.20;;;;;;5075838;28;19979;-39
2022/03/23 04:02:02;;;;;;;;;;;20.60;37.20;;;;;;5076589;28;19925;-41
2022/03/23 04:04:29;;;;;;;;;;;20.60;37.20;;;;;;5075984;28;20019;-40
2022/03/23 04:06:56;;;;;;;;;;;20.60;37.20;;;;;;5074211;28;20011;-39
2022/03/23 04:09:23;;;;;;;;;;;20.60;37.20;;;;;;5075481;28;19971;-41
2022/03/23 04:11:50;;;;;;;;;;;20.60;37.20;;;;;;5076688;28;19925;-40
2022/03/23 04:14:17;;;;;;;;;;;20.60;37.20;;;;;;5075683;28;20045;-41
2022/03/23 04:16:44;;;;;;;;;;;20.60;37.20;;;;;;5076056;28;19925;-41
2022/03/23 04:19:11;;;;;;;;;;;20.60;37.20;;;;;;5075743;28;19946;-39
2022/03/23 04:21:38;;;;;;;;;;;20.70;37.30;;;;;;5073572;28;19963;-39
2022/03/23 04:24:05;;;;;;;;;;;20.60;37.20;;;;;;5075667;28;19985;-40
2022/03/23 04:26:32;;;;;;;;;;;20.60;37.20;;;;;;5075571;28;19925;-41
2022/03/23 04:28:59;;;;;;;;;;;20.60;37.20;;;;;;5057885;28;19974;-40
2022/03/23 04:31:26;;;;;;;;;;;20.60;37.90;;;;;;5074491;28;19924;-39
2022/03/23 04:33:54;;;;;;;;;;;20.60;37.20;;;;;;5075451;28;19925;-39
2022/03/23 04:36:21;;;;;;;;;;;20.60;37.30;;;;;;5074266;28;19971;-40
2022/03/23 04:38:48;;;;;;;;;;;20.60;37.30;;;;;;5074960;28;19924;-40
2022/03/23 04:41:15;;;;;;;;;;;20.60;37.30;;;;;;5075272;28;19993;-40
2022/03/23 04:43:42;;;;;;;;;;;20.60;37.30;;;;;;5075218;28;20287;-39
2022/03/23 04:46:09;;;;;;;;;;;20.60;37.30;;;;;;5075147;28;19981;-39
2022/03/23 04:48:37;;;;;;;;;;;20.60;37.30;;;;;;5075115;28;19931;-39
2022/03/23 04:51:05;;;;;;;;;;;20.60;37.30;;;;;;5074943;28;20016;-40
2022/03/23 04:53:32;;;;;;;;;;;20.60;37.30;;;;;;5073364;28;19985;-40
2022/03/23 04:55:59;;;;;;;;;;;20.60;37.30;;;;;;5074941;28;19924;-39
2022/03/23 04:58:27;;;;;;;;;;;20.60;37.30;;;;;;5074594;28;19947;-41
2022/03/23 05:00:54;;;;;;;;;;;20.60;37.20;;;;;;5074590;28;20501;-40
2022/03/23 05:03:22;;;;;;;;;;;20.60;37.30;;;;;;5074788;28;20015;-39
2022/03/23 05:05:49;;;;;;;;;;;20.60;37.30;;;;;;5074471;28;19970;-40
2022/03/23 05:08:16;;;;;;;;;;;20.60;37.30;;;;;;5072626;28;19973;-40
2022/03/23 05:10:43;;;;;;;;;;;20.60;37.30;;;;;;5074953;28;19924;-41
2022/03/23 05:13:11;;;;;;;;;;;20.60;37.30;;;;;;5074689;28;20299;-40
2022/03/23 05:15:38;;;;;;;;;;;20.60;37.30;;;;;;5074558;28;19972;-40
2022/03/23 05:18:05;;;;;;;;;;;20.60;37.30;;;;;;5074219;28;19925;-40
2022/03/23 05:20:32;;;;;;;;;;;20.60;37.30;;;;;;5074383;28;19967;-39
2022/03/23 05:22:59;;;;;;;;;;;20.60;37.30;;;;;;5072292;28;19994;-39
2022/03/23 05:25:26;;;;;;;;;;;20.60;37.30;;;;;;5074472;28;19929;-39
2022/03/23 05:27:53;;;;;;;;;;;20.60;37.30;;;;;;5074121;28;19975;-40
2022/03/23 05:30:20;;;;;;;;;;;20.60;37.30;;;;;;5074088;28;19928;-40
2022/03/23 05:32:47;;;;;;;;;;;20.60;37.30;;;;;;5074056;28;20011;-40
2022/03/23 05:35:14;;;;;;;;;;;20.60;37.30;;;;;;5074253;28;20296;-42
2022/03/23 05:37:41;;;;;;;;;;;20.60;37.20;;;;;;5072310;28;19970;-40
2022/03/23 05:40:09;;;;;;;;;;;20.60;37.20;;;;;;5074277;28;19924;-41
2022/03/23 05:42:36;;;;;;;;;;;20.60;37.20;;;;;;5074016;28;20339;-43
2022/03/23 05:45:03;;;;;;;;;;;20.60;37.20;;;;;;5074201;28;19978;-41
2022/03/23 05:47:29;;;;;;;;;;;20.60;37.20;;;;;;5074139;28;19928;-42
2022/03/23 05:49:56;;;;;;;;;;;20.60;37.20;;;;;;5074161;28;20003;-42
2022/03/23 05:52:23;;;;;;;;;;;20.60;37.20;;;;;;5070435;28;19924;-41
2022/03/23 05:54:50;;;;;;;;;;;20.60;37.20;;;;;;5053954;28;20012;-39
2022/03/23 05:57:17;;;;;;;;;;;20.60;37.20;;;;;;5053970;28;20277;-44
2022/03/23 05:59:44;;;;;;;;;;;20.60;37.20;;;;;;5053917;28;20296;-40
2022/03/23 06:02:11;;;;;;;;;;;20.60;37.20;;;;;;5053649;28;19974;-40
2022/03/23 06:04:38;;;;;;;;;;;20.60;37.20;;;;;;5053928;28;19925;-40
2022/03/23 06:07:06;;;;;;;;;;;20.60;37.20;;;;;;5053539;28;20015;-40
2022/03/23 06:09:32;;;;;;;;;;;20.60;37.20;;;;;;5071260;28;19928;-40
2022/03/23 06:12:01;;;;;;;;;;;20.60;37.20;;;;;;5073537;28;20461;-39
2022/03/23 06:14:28;;;;;;;;;;;20.60;37.10;;;;;;5073896;28;20334;-40
2022/03/23 06:16:55;;;;;;;;;;;20.60;37.10;;;;;;5073754;28;19924;-41
2022/03/23 06:19:22;;;;;;;;;;;20.60;37.10;;;;;;5073542;28;19924;-45
2022/03/23 06:21:49;;;;;;;;;;;20.60;37.10;;;;;;5073201;28;19925;-40
2022/03/23 06:24:16;;;;;;;;;;;20.60;37.10;;;;;;5054628;28;19929;-42
2022/03/23 06:26:42;;;;;;;;;;;20.60;37.10;;;;;;5074279;28;20003;-41
2022/03/23 06:29:09;;;;;;;;;;;20.60;37.10;;;;;;5073340;28;19978;-40
2022/03/23 06:31:37;;;;;;;;;;;20.60;37.10;;;;;;5073625;28;19928;-40
2022/03/23 06:34:04;;;;;;;;;;;20.60;37.10;;;;;;5073658;28;19925;-41
2022/03/23 06:36:31;;;;;;;;;;;20.60;37.10;;;;;;5074168;28;19924;-41
2022/03/23 06:38:58;;;;;;;;;;;20.60;37.00;;;;;;5072108;28;19958;-40
2022/03/23 06:41:25;;;;;;;;;;;20.60;37.00;;;;;;5073563;28;19932;-43
2022/03/23 06:43:53;;;;;;;;;;;20.60;37.00;;;;;;5073565;28;19925;-41
2022/03/23 06:46:19;;;;;;;;;;;20.60;37.00;;;;;;5073240;28;19958;-43
2022/03/23 06:48:47;;;;;;;;;;;20.70;37.70;;;;;;5073217;28;19970;-42
2022/03/23 06:51:14;;;;;;;;;;;20.60;37.60;;;;;;5073268;28;20011;-42
2022/03/23 06:53:42;;;;;;;;;;;20.60;37.00;;;;;;5064566;28;19925;-46
2022/03/23 06:56:09;;;;;;;;;;;20.60;37.00;;;;;;5056447;28;20373;-42
2022/03/23 06:58:36;;;;;;;;;;;20.70;37.00;;;;;;5056940;28;19977;-46
2022/03/23 07:01:04;;;;;;;;;;;20.70;37.00;;;;;;5057177;28;19925;-40
2022/03/23 07:03:31;;;;;;;;;;;20.70;37.00;;;;;;5057026;28;20347;-39
2022/03/23 07:05:58;;;;;;;;;;;20.70;37.00;;;;;;5057115;28;20015;-41
2022/03/23 07:11:10;;;;;;;;;;;20.70;37.00;;;;;;5076697;28;19979;-41
2022/03/23 07:13:37;;;;;;;;;;;20.70;37.00;;;;;;5076601;28;19975;-42
2022/03/23 07:16:04;;;;;;;;;;;20.70;37.00;;;;;;5076779;28;19975;-40
2022/03/23 07:18:31;;;;;;;;;;;20.70;37.00;;;;;;5076875;28;20276;-42
2022/03/23 07:21:00;;;;;;;;;;;20.70;37.00;;;;;;5076139;28;19931;-42
2022/03/23 07:23:28;;;;;;;;;;;20.70;37.00;;;;;;5073092;28;19933;-41
2022/03/23 07:25:54;;;;;;;;;;;20.70;37.00;;;;;;5056303;28;19968;-43
2022/03/23 07:28:21;;;;;;;;;;;20.70;36.90;;;;;;5056269;28;20339;-45
2022/03/23 07:30:48;;;;;;;;;;;20.70;36.90;;;;;;5056058;28;19925;-42
2022/03/23 07:33:15;;;;;;;;;;;20.70;36.90;;;;;;5056529;28;19995;-43
2022/03/23 07:35:42;;;;;;;;;;;20.70;37.00;;;;;;5055956;28;20019;-45
2022/03/23 07:38:09;;;;;;;;;;;20.80;37.00;;;;;;5055803;28;19924;-40
2022/03/23 07:40:36;;;;;;;;;;;20.70;36.90;;;;;;5074372;28;20300;-48
2022/03/23 07:43:04;;;;;;;;;;;20.70;36.90;;;;;;5075865;28;19925;-46
2022/03/23 07:45:31;;;;;;;;;;;20.70;36.90;;;;;;5076194;28;19925;-41
2022/03/23 07:47:59;;;;;;;;;;;20.80;36.90;;;;;;5075945;28;19964;-42
2022/03/23 07:50:26;;;;;;;;;;;20.80;36.90;;;;;;5076029;28;19967;-42
2022/03/23 07:52:53;;;;;;;;;;;20.80;36.90;;;;;;5075132;28;19954;-42
2022/03/23 07:55:20;;;;;;;;;;;20.80;36.90;;;;;;5058412;28;19970;-46
2022/03/23 07:57:47;;;;;;;;;;;20.80;36.90;;;;;;5055673;28;19928;-42
2022/03/23 08:00:15;;;;;;;;;;;20.80;36.90;;;;;;5055876;28;19925;-41
2022/03/23 08:02:42;;;;;;;;;;;20.80;36.90;;;;;;5037800;28;19971;-41
2022/03/23 08:05:09;;;;;;;;;;;20.80;36.80;;;;;;5055583;28;19931;-42
2022/03/23 08:07:37;;;;;;;;;;;20.80;36.80;;;;;;5055539;28;20304;-47
2022/03/23 08:10:04;;;;;;;;;;;20.80;36.80;;;;;;5066419;28;19924;-45
2022/03/23 08:12:31;;;;;;;;;;;20.80;36.80;;;;;;5075765;28;20354;-40
2022/03/23 08:14:58;;;;;;;;;;;20.80;36.80;;;;;;5075762;28;20037;-41
2022/03/23 08:17:25;;;;;;;;;;;20.80;36.80;;;;;;5075675;28;19967;-42
2022/03/23 08:22:37;;;;;;;;;;;20.80;36.70;;;;;;5075138;28;20024;-41
2022/03/23 08:25:05;;;;;;;;;;;20.80;36.60;;;;;;5073360;28;19924;-40
2022/03/23 08:27:32;;;;;;;;;;;20.80;36.60;;;;;;5076412;28;20386;-42
2022/03/23 08:29:59;;;;;;;;;;;20.80;36.60;;;;;;5075221;28;19971;-43
2022/03/23 08:32:29;;;;;;;;;;;20.80;36.50;;;;;;5075185;28;19963;-42
2022/03/23 08:34:55;;;;;;;;;;;20.90;36.60;;;;;;5075382;28;19925;-44
2022/03/23 08:37:22;;;;;;;;;;;20.90;36.50;;;;;;5075304;28;19924;-47
2022/03/23 08:39:49;;;;;;;;;;;20.90;36.50;;;;;;5066576;28;19925;-45
2022/03/23 08:42:16;;;;;;;;;;;20.90;36.50;;;;;;5055005;28;20369;-45
2022/03/23 08:44:45;;;;;;;;;;;20.90;36.50;;;;;;5055223;28;19924;-46
2022/03/23 08:47:12;;;;;;;;;;;20.90;36.50;;;;;;5055178;28;19970;-48
2022/03/23 08:49:39;;;;;;;;;;;20.90;36.50;;;;;;5054783;28;19925;-43
2022/03/23 08:52:06;;;;;;;;;;;20.90;36.50;;;;;;5054336;28;19924;-45
2022/03/23 08:54:33;;;;;;;;;;;20.90;36.40;;;;;;5057045;28;19928;-40
2022/03/23 08:57:00;;;;;;;;;;;20.90;36.40;;;;;;5074464;28;19955;-40
2022/03/23 08:59:27;;;;;;;;;;;20.90;36.40;;;;;;5074939;28;19987;-44
2022/03/23 09:01:54;;;;;;;;;;;20.90;36.40;;;;;;5074878;28;19986;-45
2022/03/23 09:04:21;;;;;;;;;;;21.00;36.50;;;;;;5074018;28;19932;-46
2022/03/23 09:06:48;;;;;;;;;;;20.90;36.40;;;;;;5074509;28;19929;-47
2022/03/23 09:09:15;;;;;;;;;;;21.00;36.50;;;;;;5073394;28;19924;-42
2022/03/23 09:11:43;;;;;;;;;;;21.00;36.50;;;;;;5073407;28;20388;-40
2022/03/23 09:14:12;;;;;;;;;;;21.00;37.10;;;;;;5074167;28;20403;-43
2022/03/23 09:16:39;;;;;;;;;;;21.00;36.40;;;;;;5074151;28;19924;-43
2022/03/23 09:19:07;;;;;;;;;;;21.00;36.50;;;;;;5074100;28;20447;-42
2022/03/23 09:21:33;;;;;;;;;;;21.00;36.40;;;;;;5073691;28;19975;-44
2022/03/23 09:24:00;;;;;;;;;;;21.10;36.50;;;;;;5074324;28;19924;-43
2022/03/23 09:26:28;;;;;;;;;;;21.00;36.40;;;;;;5072314;28;20015;-44
2022/03/23 09:28:56;;;;;;;;;;;21.10;36.50;;;;;;5073840;28;20302;-42
2022/03/23 09:31:23;;;;;;;;;;;21.10;36.40;;;;;;5074249;28;19971;-43
2022/03/23 09:33:50;;;;;;;;;;;21.10;36.40;;;;;;5073783;28;19925;-46
2022/03/23 09:39:04;;;;;;;;;;;21.10;36.40;;;;;;5073662;28;20006;-44
2022/03/23 09:41:32;;;;;;;;;;;21.10;36.50;;;;;;5056043;28;19929;-49
2022/03/23 09:43:59;;;;;;;;;;;21.10;36.40;;;;;;5053935;28;19925;-41
2022/03/23 09:46:26;;;;;;;;;;;21.10;36.40;;;;;;5054129;28;19971;-44
2022/03/23 09:48:54;;;;;;;;;;;21.10;36.40;;;;;;5054088;28;19967;-44
2022/03/23 09:51:21;;;;;;;;;;;21.10;36.40;;;;;;5053462;28;19987;-45
2022/03/23 09:53:48;;;;;;;;;;;21.20;36.50;;;;;;5053932;28;20028;-48
2022/03/23 09:56:15;;;;;;;;;;;21.20;36.40;;;;;;5064955;28;20265;-44
2022/03/23 09:58:43;;;;;;;;;;;21.20;36.40;;;;;;5073984;28;20340;-43
2022/03/23 10:01:30;;;;;;;;;;;21.20;36.40;;;;;;5073546;28;19978;-43
2022/03/23 10:04:12;;;;;;;;;;;21.20;36.40;;;;;;5073848;28;19925;-41
2022/03/23 10:06:51;;;;;;;;;;;21.20;36.40;;;;;;5073927;28;19932;-41
2022/03/23 10:09:18;;;;;;;;;;;21.20;36.40;;;;;;5073504;28;19936;-44
2022/03/23 10:12:04;;;;;;;;;;;21.20;36.40;;;;;;5072378;28;19978;-40
2022/03/23 10:14:33;;;;;;;;;;;21.20;36.40;;;;;;5073797;28;19932;-47
2022/03/23 10:17:19;;;;;;;;;;;21.20;36.40;;;;;;5073428;28;19970;-43
2022/03/23 10:19:47;;;;;;;;;;;21.20;36.40;;;;;;5073808;28;20364;-41
2022/03/23 10:22:17;;;;;;;;;;;21.20;36.40;;;;;;5073147;28;20430;-42
2022/03/23 10:24:44;;;;;;;;;;;21.20;36.40;;;;;;5073723;28;20295;-44
2022/03/23 10:27:12;;;;;;;;;;;21.30;36.40;;;;;;5072108;28;19925;-44
2022/03/23 10:29:40;;;;;;;;;;;21.30;36.40;;;;;;5074535;28;19970;-45
2022/03/23 10:32:08;;;;;;;;;;;21.20;36.40;;;;;;5078593;28;20326;-45
2022/03/23 10:34:51;;;;;;;;;;;21.30;36.40;;;;;;5077769;28;19925;-42
2022/03/23 10:37:26;;;;;;;;;;;21.30;36.40;;;;;;5077457;28;19967;-43
2022/03/23 10:39:54;;;;;;;;;;;21.30;36.50;;;;;;5077619;28;20291;-40
2022/03/23 10:42:21;;;;;;;;;;;21.30;36.40;;;;;;5075757;28;19925;-42
2022/03/23 10:44:48;;;;;;;;;;;21.30;36.40;;;;;;5077231;28;19963;-48
2022/03/23 10:47:28;;;;;;;;;;;21.30;36.40;;;;;;5077163;28;19970;-44
2022/03/23 10:49:55;;;;;;;;;;;21.30;36.40;;;;;;5077482;28;19977;-41
2022/03/23 10:52:24;;;;;;;;;;;21.30;37.10;;;;;;5076923;28;19924;-41
2022/03/23 10:54:55;;;;;;;;;;;21.30;36.40;;;;;;5077008;28;20011;-41
2022/03/23 10:57:35;;;;;;;;;;;21.30;36.40;;;;;;5075717;28;19976;-43
2022/03/23 11:00:03;;;;;;;;;;;21.30;36.50;;;;;;5077251;28;20303;-41
2022/03/23 11:02:36;;;;;;;;;;;21.30;36.50;;;;;;5076862;28;19925;-44
2022/03/23 11:05:03;;;;;;;;;;;21.30;36.50;;;;;;5076866;28;19930;-41
2022/03/23 11:07:35;;;;;;;;;;;21.30;36.50;;;;;;5076615;28;19928;-41
2022/03/23 11:15:49;;;;;;;;;;;21.30;36.50;;;;;;5077010;28;19931;-40
2022/03/23 11:18:18;;;;;;;;;;;21.30;36.50;;;;;;5077123;28;19950;-40
2022/03/23 11:20:44;;;;;;;;;;;21.30;36.50;;;;;;5076182;28;19967;-42
2022/03/23 11:23:19;;;;;;;;;;;21.30;36.50;;;;;;5076850;28;20307;-41
2022/03/23 11:25:56;;;;;;;;;;;21.30;36.50;;;;;;5075787;28;19924;-42
2022/03/23 11:28:28;;;;;;;;;;;21.30;36.50;;;;;;5076427;28;20038;-42
2022/03/23 11:30:56;;;;;;;;;;;21.30;36.50;;;;;;5076724;28;20356;-42
2022/03/23 11:33:25;;;;;;;;;;;21.30;36.50;;;;;;5076339;28;19929;-42
2022/03/23 11:35:53;;;;;;;;;;;21.30;36.50;;;;;;5076254;28;20445;-47
2022/03/23 11:38:21;;;;;;;;;;;21.30;36.40;;;;;;5076261;28;19925;-48
2022/03/23 11:40:49;;;;;;;;;;;21.30;36.50;;;;;;5075614;28;19929;-47
2022/03/23 11:43:17;;;;;;;;;;;21.30;36.40;;;;;;5075348;28;19967;-50
2022/03/23 11:46:05;;;;;;;;;;;21.30;36.40;;;;;;5076963;28;20295;-44
2022/03/23 11:48:52;;;;;;;;;;;21.40;36.50;;;;;;5076200;28;19928;-46
2022/03/23 11:51:23;;;;;;;;;;;21.30;36.40;;;;;;5076151;28;19924;-47
2022/03/23 11:53:55;;;;;;;;;;;21.30;36.40;;;;;;5076241;28;19925;-43
2022/03/23 11:56:24;;;;;;;;;;;21.30;36.40;;;;;;5071881;28;19932;-47
2022/03/23 11:58:52;;;;;;;;;;;21.30;36.40;;;;;;5056135;28;20281;-48
2022/03/23 12:01:20;;;;;;;;;;;21.30;36.40;;;;;;5055761;28;19932;-46
2022/03/23 12:03:51;;;;;;;;;;;21.30;36.40;;;;;;5056076;28;19929;-44
2022/03/23 12:06:19;;;;;;;;;;;21.40;36.40;;;;;;5056051;28;19932;-47
2022/03/23 12:08:49;;;;;;;;;;;21.30;36.40;;;;;;5055802;28;19924;-48
2022/03/23 12:11:35;;;;;;;;;;;21.30;36.40;;;;;;5055256;28;19932;-50
2022/03/23 12:14:03;;;;;;;;;;;21.40;36.50;;;;;;5055452;28;19924;-50
2022/03/23 12:16:49;;;;;;;;;;;21.40;36.60;;;;;;5054961;28;20015;-47
2022/03/23 12:19:52;;;;;;;;;;;21.40;41.00;;;;;;5055048;28;19968;-49
2022/03/23 12:22:34;;;;;;;;;;;21.50;42.20;;;;;;5054625;28;19994;-44
2022/03/23 12:25:20;;;;;;;;;;;21.50;42.00;;;;;;5055650;28;20354;-49
2022/03/23 12:27:52;;;;;;;;;;;21.60;41.70;;;;;;5054706;28;19925;-42
2022/03/23 12:30:22;;;;;;;;;;;21.60;41.50;;;;;;5055434;28;19974;-43
2022/03/23 12:32:49;;;;;;;;;;;21.60;41.40;;;;;;5055821;28;19982;-46
2022/03/23 12:35:28;;;;;;;;;;;21.60;40.80;;;;;;5055130;28;20308;-45
2022/03/23 12:37:54;;;;;;;;;;;21.60;40.50;;;;;;5055225;28;19924;-41
2022/03/23 12:40:21;;;;;;;;;;;21.60;40.50;;;;;;5055026;28;19929;-45
2022/03/23 12:42:48;;;;;;;;;;;21.60;40.50;;;;;;5064218;28;20039;-41
2022/03/23 12:45:17;;;;;;;;;;;21.60;40.60;;;;;;5075245;28;19925;-42
2022/03/23 12:47:58;;;;;;;;;;;21.60;40.70;;;;;;5075030;28;19985;-46
2022/03/23 12:59:18;;;;;;;;;;;21.60;40.80;;;;;;5074204;28;19924;-48
2022/03/23 13:01:45;;;;;;;;;;;21.60;40.90;;;;;;5074895;28;19982;-41
2022/03/23 13:04:31;;;;;;;;;;;21.60;40.80;;;;;;5074539;28;19924;-42
2022/03/23 13:06:58;;;;;;;;;;;21.60;40.80;;;;;;5074484;28;19974;-43
2022/03/23 13:09:28;;;;;;;;;;;21.60;40.70;;;;;;5057017;28;19924;-47
2022/03/23 13:11:58;;;;;;;;;;;21.60;40.70;;;;;;5073035;28;19977;-48
2022/03/23 13:14:26;;;;;;;;;;;21.60;40.60;;;;;;5054434;28;19925;-42
2022/03/23 13:16:56;;;;;;;;;;;21.60;40.50;;;;;;5054256;28;19925;-41
2022/03/23 13:19:24;;;;;;;;;;;21.50;40.40;;;;;;5054357;28;19925;-46
2022/03/23 13:21:51;;;;;;;;;;;21.50;40.40;;;;;;5053949;28;20007;-45
2022/03/23 13:24:25;;;;;;;;;;;21.50;40.30;;;;;;5053972;28;19983;-42
2022/03/23 13:26:52;;;;;;;;;;;21.50;40.30;;;;;;5054056;28;19959;-44
2022/03/23 13:29:24;;;;;;;;;;;21.50;40.20;;;;;;5072458;28;19994;-42
2022/03/23 13:31:51;;;;;;;;;;;21.50;40.10;;;;;;5074018;28;20392;-41
2022/03/23 13:34:21;;;;;;;;;;;21.50;40.10;;;;;;5073968;28;19959;-43
2022/03/23 13:36:51;;;;;;;;;;;21.50;40.10;;;;;;5073881;28;20372;-43
2022/03/23 13:39:19;;;;;;;;;;;21.50;40.00;;;;;;5073866;28;19936;-42
2022/03/23 13:47:31;;;;;;;;;;;21.50;39.80;;;;;;5074160;28;19928;-42
2022/03/23 13:49:59;;;;;;;;;;;21.50;39.80;;;;;;5073682;28;19925;-42
2022/03/23 13:52:26;;;;;;;;;;;21.50;39.70;;;;;;5073920;28;19924;-43
2022/03/23 13:54:58;;;;;;;;;;;21.50;39.80;;;;;;5071079;28;20342;-44
2022/03/23 13:57:29;;;;;;;;;;;21.50;39.70;;;;;;5071771;28;20015;-43
2022/03/23 13:59:56;;;;;;;;;;;21.50;39.70;;;;;;5053655;28;20415;-46
2022/03/23 14:02:26;;;;;;;;;;;21.50;39.60;;;;;;5053277;28;19972;-42
2022/03/23 14:05:16;;;;;;;;;;;21.50;39.60;;;;;;5053484;28;19924;-42
2022/03/23 14:07:44;;;;;;;;;;;21.50;39.60;;;;;;5053762;28;19960;-43
2022/03/23 14:10:11;;;;;;;;;;;21.50;39.60;;;;;;5054043;28;19925;-44
2022/03/23 14:12:38;;;;;;;;;;;21.50;39.60;;;;;;5053415;28;20376;-44
2022/03/23 14:15:25;;;;;;;;;;;21.50;40.00;;;;;;5074584;28;20004;-40
2022/03/23 14:17:56;;;;;;;;;;;21.60;41.30;;;;;;5073695;28;20368;-40
2022/03/23 14:20:24;;;;;;;;;;;21.60;40.90;;;;;;5073265;28;19979;-43
2022/03/23 14:22:53;;;;;;;;;;;21.60;40.60;;;;;;5073485;28;20019;-42
2022/03/23 14:25:20;;;;;;;;;;;21.60;40.60;;;;;;5073688;28;19924;-49
2022/03/23 14:27:49;;;;;;;;;;;21.60;40.50;;;;;;5070855;28;19925;-46
2022/03/23 14:30:17;;;;;;;;;;;21.60;40.50;;;;;;5053640;28;19924;-47
2022/03/23 14:32:52;;;;;;;;;;;21.60;40.40;;;;;;5053314;28;19925;-45
2022/03/23 14:35:38;;;;;;;;;;;21.60;40.50;;;;;;5053550;28;19968;-50
2022/03/23 14:38:08;;;;;;;;;;;21.60;40.40;;;;;;5053176;28;19972;-43
2022/03/23 14:40:39;;;;;;;;;;;21.60;40.50;;;;;;5053241;28;19979;-49
2022/03/23 14:43:07;;;;;;;;;;;21.60;40.50;;;;;;5052111;28;19932;-48
2022/03/23 14:45:44;;;;;;;;;;;21.50;40.30;;;;;;5053494;28;19924;-42
2022/03/23 14:48:17;;;;;;;;;;;21.50;40.30;;;;;;5035889;28;20007;-42
2022/03/23 14:50:48;;;;;;;;;;;21.50;40.30;;;;;;5053463;28;20291;-41
2022/03/23 14:53:20;;;;;;;;;;;21.50;40.30;;;;;;5053318;28;19925;-39
2022/03/23 14:55:47;;;;;;;;;;;21.50;40.20;;;;;;5053187;28;19975;-39
2022/03/23 14:58:23;;;;;;;;;;;21.50;40.20;;;;;;5054570;28;19932;-46
2022/03/23 15:00:51;;;;;;;;;;;21.50;40.20;;;;;;5073241;28;20026;-43
2022/03/23 15:03:19;;;;;;;;;;;21.50;40.20;;;;;;5073586;28;19928;-46
2022/03/23 15:14:03;;;;;;;;;;;21.50;40.10;;;;;;5071734;28;20334;-49